createdAt,value
2018-08-20T00:02:34.495Z,7.70
2018-08-20T00:08:42.258Z,7.80
2018-08-20T00:14:47.335Z,7.60
2018-08-20T00:20:52.078Z,8.23
2018-08-20T00:27:00.349Z,7.40
2018-08-20T00:33:05.174Z,7.63
2018-08-20T00:39:11.401Z,7.63
2018-08-20T00:45:16.542Z,8.00
2018-08-20T00:51:21.313Z,8.20
2018-08-20T00:57:26.110Z,7.30
2018-08-20T01:03:30.888Z,7.00
2018-08-20T01:09:35.827Z,7.40
2018-08-20T01:15:41.438Z,7.80
2018-08-20T01:21:46.109Z,8.00
2018-08-20T01:27:51.235Z,7.87
2018-08-20T01:33:56.233Z,7.30
2018-08-20T01:40:00.908Z,8.90
2018-08-20T01:46:05.620Z,8.67
2018-08-20T01:52:11.319Z,7.83
2018-08-20T01:58:16.144Z,8.60
2018-08-20T02:04:21.021Z,8.50
2018-08-20T02:10:25.873Z,7.90
2018-08-20T02:16:30.655Z,8.70
2018-08-20T02:22:35.422Z,7.10
2018-08-20T02:28:41.058Z,8.00
2018-08-20T02:34:45.788Z,7.73
2018-08-20T02:40:50.501Z,7.00
2018-08-20T02:46:56.278Z,7.90
2018-08-20T02:53:00.996Z,8.23
2018-08-20T02:59:05.857Z,8.40
2018-08-20T03:05:12.362Z,9.60
2018-08-20T03:11:17.099Z,8.63
2018-08-20T03:17:21.955Z,8.40
2018-08-20T03:23:27.186Z,8.70
2018-08-20T03:29:31.886Z,8.90
2018-08-20T03:35:36.620Z,9.27
2018-08-20T03:41:41.890Z,8.30
2018-08-20T03:47:46.556Z,9.40
2018-08-20T03:53:51.331Z,9.23
2018-08-20T03:59:56.546Z,9.23
2018-08-20T04:06:01.513Z,10.07
2018-08-20T04:12:06.770Z,9.90
2018-08-20T04:18:12.397Z,9.67
2018-08-20T04:24:17.369Z,9.70
2018-08-20T04:30:22.410Z,10.30
2018-08-20T04:36:27.546Z,9.63
2018-08-20T04:42:32.448Z,9.27
2018-08-20T04:48:38.165Z,10.30
2018-08-20T04:54:43.051Z,10.17
2018-08-20T05:00:47.815Z,10.03
2018-08-20T05:06:52.503Z,10.90
2018-08-20T05:12:57.179Z,9.30
2018-08-20T05:19:02.340Z,9.33
2018-08-20T05:25:07.759Z,11.07
2018-08-20T05:31:12.488Z,9.50
2018-08-20T05:37:17.871Z,9.80
2018-08-20T05:43:22.591Z,9.60
2018-08-20T05:49:27.315Z,9.90
2018-08-20T05:55:31.991Z,10.30
2018-08-20T06:01:36.979Z,9.77
2018-08-20T06:07:42.243Z,10.00
2018-08-20T06:13:46.977Z,10.53
2018-08-20T06:19:51.996Z,11.30
2018-08-20T06:25:57.018Z,11.33
2018-08-20T06:32:08.621Z,10.67
2018-08-20T06:38:13.933Z,11.37
2018-08-20T06:44:18.697Z,11.90
2018-08-20T06:50:23.474Z,11.50
2018-08-20T06:56:28.570Z,13.20
2018-08-20T07:02:33.346Z,12.97
2018-08-20T07:08:38.086Z,12.50
2018-08-20T07:14:42.903Z,13.50
2018-08-20T07:20:47.692Z,12.37
2018-08-20T07:26:52.497Z,13.47
2018-08-20T07:32:57.287Z,12.60
2018-08-20T07:39:01.987Z,12.90
2018-08-20T07:45:06.797Z,11.83
2018-08-20T07:51:11.482Z,12.17
2018-08-20T07:57:16.491Z,11.60
2018-08-20T08:03:29.292Z,10.63
2018-08-20T08:09:34.064Z,10.77
2018-08-20T08:15:39.300Z,10.50
2018-08-20T08:21:44.408Z,10.60
2018-08-20T08:27:49.169Z,8.60
2018-08-20T08:33:54.375Z,7.63
2018-08-20T08:39:59.185Z,5.60
2018-08-20T08:46:04.046Z,6.10
2018-08-20T08:52:08.793Z,5.47
2018-08-20T08:58:13.562Z,4.33
2018-08-20T09:04:18.253Z,4.07
2018-08-20T09:10:22.960Z,3.57
2018-08-20T09:16:27.663Z,5.60
2018-08-20T09:22:32.354Z,6.73
2018-08-20T09:28:37.257Z,5.10
2018-08-20T09:34:42.375Z,5.50
2018-08-20T09:40:47.158Z,5.23
2018-08-20T09:46:51.836Z,5.03
2018-08-20T09:52:56.624Z,4.53
2018-08-20T09:59:01.352Z,3.30
2018-08-20T10:05:06.603Z,2.80
2018-08-20T10:11:12.320Z,3.47
2018-08-20T10:17:17.012Z,3.57
2018-08-20T10:23:21.790Z,3.47
2018-08-20T10:29:26.556Z,3.43
2018-08-20T10:35:31.267Z,2.93
2018-08-20T10:41:36.114Z,2.70
2018-08-20T10:47:41.525Z,3.67
2018-08-20T10:53:46.332Z,2.57
2018-08-20T10:59:51.133Z,3.70
2018-08-20T11:05:55.813Z,2.90
2018-08-20T11:12:00.896Z,3.43
2018-08-20T11:18:06.136Z,3.77
2018-08-20T11:24:11.863Z,4.67
2018-08-20T11:30:16.920Z,4.63
2018-08-20T11:36:21.581Z,4.63
2018-08-20T11:42:26.342Z,3.90
2018-08-20T11:48:31.019Z,4.70
2018-08-20T11:54:35.959Z,5.47
2018-08-20T12:00:41.208Z,4.73
2018-08-20T12:06:45.927Z,5.03
2018-08-20T12:12:50.665Z,5.53
2018-08-20T12:18:55.569Z,5.43
2018-08-20T12:25:00.633Z,6.00
2018-08-20T12:31:05.359Z,6.53
2018-08-20T12:37:10.630Z,6.87
2018-08-20T12:43:15.405Z,7.07
2018-08-20T12:49:20.248Z,7.00
2018-08-20T12:55:24.899Z,7.47
2018-08-20T13:01:29.571Z,6.63
2018-08-20T13:07:34.381Z,8.10
2018-08-20T13:13:39.357Z,7.50
2018-08-20T13:19:44.134Z,9.13
2018-08-20T13:25:48.860Z,8.33
2018-08-20T13:31:53.595Z,8.90
2018-08-20T13:37:58.533Z,9.13
2018-08-20T13:44:03.410Z,9.60
2018-08-20T13:50:12.682Z,8.60
2018-08-20T13:56:17.398Z,8.13
2018-08-20T14:02:22.225Z,10.23
2018-08-20T14:08:27.216Z,9.47
2018-08-20T14:14:31.999Z,10.80
2018-08-20T14:20:36.700Z,9.30
2018-08-20T14:26:42.689Z,12.10
2018-08-20T14:32:47.471Z,12.67
2018-08-20T14:38:52.257Z,12.53
2018-08-20T14:44:57.857Z,11.60
2018-08-20T14:51:02.763Z,10.83
2018-08-20T14:57:07.745Z,11.60
2018-08-20T15:03:13.116Z,10.50
2018-08-20T15:09:17.943Z,11.20
2018-08-20T15:15:22.703Z,10.70
2018-08-20T15:21:27.843Z,11.13
2018-08-20T15:27:32.596Z,11.20
2018-08-20T15:33:37.437Z,9.97
2018-08-20T15:39:42.395Z,11.57
2018-08-20T15:45:47.085Z,11.70
2018-08-20T15:51:51.954Z,11.77
2018-08-20T15:57:56.714Z,16.07
2018-08-20T16:04:01.485Z,12.00
2018-08-20T16:10:09.835Z,11.70
2018-08-20T16:16:15.153Z,13.00
2018-08-20T16:22:19.892Z,13.60
2018-08-20T16:28:24.819Z,13.83
2018-08-20T16:34:29.533Z,12.87
2018-08-20T16:40:34.312Z,13.63
2018-08-20T16:46:39.768Z,12.47
2018-08-20T16:52:44.776Z,11.57
2018-08-20T16:58:49.591Z,12.33
2018-08-20T17:04:55.603Z,11.87
2018-08-20T17:11:00.525Z,12.87
2018-08-20T17:17:05.688Z,11.37
2018-08-20T17:23:20.010Z,11.07
2018-08-20T17:29:24.699Z,11.10
2018-08-20T17:35:29.759Z,10.20
2018-08-20T17:41:34.539Z,11.77
2018-08-20T17:47:41.017Z,9.83
2018-08-20T17:53:55.813Z,11.07
2018-08-20T18:01:06.129Z,10.87
2018-08-20T18:07:11.178Z,11.70
2018-08-20T18:13:34.427Z,8.60
2018-08-20T18:19:39.833Z,8.83
2018-08-20T18:25:44.813Z,8.77
2018-08-20T18:31:56.011Z,7.87
2018-08-20T18:38:02.388Z,8.00
2018-08-20T18:44:07.130Z,8.80
2018-08-20T18:50:13.334Z,8.13
2018-08-20T18:56:18.949Z,8.87
2018-08-20T19:03:03.695Z,10.20
2018-08-20T19:09:09.154Z,12.17
2018-08-20T19:15:36.493Z,11.10
2018-08-20T19:21:42.581Z,10.90
2018-08-20T19:27:47.327Z,11.10
2018-08-20T19:33:52.413Z,10.40
2018-08-20T19:39:57.202Z,10.30
2018-08-20T19:46:02.021Z,10.30
2018-08-20T19:52:08.260Z,9.90
2018-08-20T19:58:20.907Z,9.40
2018-08-20T20:04:25.691Z,8.30
2018-08-20T20:10:30.432Z,8.67
2018-08-20T20:16:40.725Z,8.67
2018-08-20T20:22:45.626Z,9.13
2018-08-20T20:28:50.269Z,8.23
2018-08-20T20:34:55.136Z,8.50
2018-08-20T20:41:00.330Z,7.30
2018-08-20T20:47:05.771Z,9.87
2018-08-20T20:53:11.595Z,10.07
2018-08-20T20:59:16.561Z,9.10
2018-08-20T21:05:21.366Z,9.63
2018-08-20T21:11:26.115Z,9.90
2018-08-20T21:17:35.406Z,9.07
2018-08-20T21:23:41.968Z,9.43
2018-08-20T21:29:46.766Z,8.37
2018-08-20T21:35:51.621Z,9.30
2018-08-20T21:41:56.480Z,9.67
2018-08-20T21:48:01.223Z,10.20
2018-08-20T21:54:05.959Z,10.07
2018-08-20T22:00:16.699Z,10.47
2018-08-20T22:06:21.407Z,10.33
2018-08-20T22:12:26.205Z,8.00
2018-08-20T22:18:35.056Z,7.73
2018-08-20T22:24:42.343Z,6.60
2018-08-20T22:30:51.307Z,7.97
2018-08-20T22:37:00.214Z,6.93
2018-08-20T22:43:04.991Z,7.57
2018-08-20T22:49:10.013Z,7.80
2018-08-20T22:55:16.283Z,7.03
2018-08-20T23:01:21.049Z,7.70
2018-08-20T23:07:27.642Z,6.40
2018-08-20T23:13:32.394Z,6.10
2018-08-20T23:19:37.217Z,6.60
2018-08-20T23:25:42.129Z,5.80
2018-08-20T23:31:46.955Z,5.90
2018-08-20T23:37:51.930Z,6.77
2018-08-20T23:43:59.701Z,6.17
2018-08-20T23:50:04.545Z,6.60
2018-08-20T23:56:09.336Z,6.10
